sensor_id;sensor_type;location;lat;lon;timestamp;temperature;humidity
3980;DHT22;2004;52.452;13.120;2023-08-17T00:03:51;21.00;99.90
3980;DHT22;2004;52.452;13.120;2023-08-17T00:11:42;20.90;99.90
3980;DHT22;2004;52.452;13.120;2023-08-17T00:19:32;20.80;99.90
3980;DHT22;2004;52.452;13.120;2023-08-17T00:27:23;20.80;99.90
3980;DHT22;2004;52.452;13.120;2023-08-17T00:35:14;20.70;99.90
3980;DHT22;2004;52.452;13.120;2023-08-17T00:43:05;20.70;99.90
3980;DHT22;2004;52.452;13.120;2023-08-17T00:50:56;20.60;99.90
3980;DHT22;2004;52.452;13.120;2023-08-17T00:58:49;20.60;99.90
3980;DHT22;2004;52.452;13.120;2023-08-17T01:06:39;20.50;99.90
3980;DHT22;2004;52.452;13.120;2023-08-17T01:14:41;20.50;99.90
3980;DHT22;2004;52.452;13.120;2023-08-17T01:22:35;20.50;99.90
3980;DHT22;2004;52.452;13.120;2023-08-17T01:30:26;20.40;99.90
3980;DHT22;2004;52.452;13.120;2023-08-17T01:38:18;20.40;99.90
3980;DHT22;2004;52.452;13.120;2023-08-17T01:46:15;20.40;99.90
3980;DHT22;2004;52.452;13.120;2023-08-17T01:54:06;20.20;99.90
3980;DHT22;2004;52.452;13.120;2023-08-17T02:01:57;20.20;99.90
3980;DHT22;2004;52.452;13.120;2023-08-17T02:09:47;20.10;99.90
3980;DHT22;2004;52.452;13.120;2023-08-17T02:17:38;20.10;99.90
3980;DHT22;2004;52.452;13.120;2023-08-17T02:25:28;20.10;99.90
3980;DHT22;2004;52.452;13.120;2023-08-17T02:33:25;20.10;99.90
3980;DHT22;2004;52.452;13.120;2023-08-17T02:41:16;20.00;99.90
3980;DHT22;2004;52.452;13.120;2023-08-17T02:49:06;20.00;99.90
3980;DHT22;2004;52.452;13.120;2023-08-17T02:56:57;20.00;99.90
3980;DHT22;2004;52.452;13.120;2023-08-17T03:04:48;19.90;99.90
3980;DHT22;2004;52.452;13.120;2023-08-17T03:12:38;19.90;99.90
3980;DHT22;2004;52.452;13.120;2023-08-17T03:20:29;19.80;99.90
3980;DHT22;2004;52.452;13.120;2023-08-17T03:28:20;19.70;99.90
3980;DHT22;2004;52.452;13.120;2023-08-17T03:36:10;19.70;99.90
3980;DHT22;2004;52.452;13.120;2023-08-17T03:44:01;19.60;99.90
3980;DHT22;2004;52.452;13.120;2023-08-17T03:51:51;19.60;99.90
3980;DHT22;2004;52.452;13.120;2023-08-17T03:59:42;19.60;99.90
3980;DHT22;2004;52.452;13.120;2023-08-17T04:07:32;19.60;99.90
3980;DHT22;2004;52.452;13.120;2023-08-17T04:15:23;19.60;99.90
3980;DHT22;2004;52.452;13.120;2023-08-17T04:23:14;19.50;99.90
3980;DHT22;2004;52.452;13.120;2023-08-17T04:31:04;19.50;99.90
3980;DHT22;2004;52.452;13.120;2023-08-17T04:38:55;19.50;99.90
3980;DHT22;2004;52.452;13.120;2023-08-17T04:46:45;19.60;99.90
3980;DHT22;2004;52.452;13.120;2023-08-17T04:54:36;19.60;99.90
3980;DHT22;2004;52.452;13.120;2023-08-17T05:02:26;19.50;99.90
3980;DHT22;2004;52.452;13.120;2023-08-17T05:10:17;19.50;99.90
3980;DHT22;2004;52.452;13.120;2023-08-17T05:18:08;19.50;99.90
3980;DHT22;2004;52.452;13.120;2023-08-17T05:25:58;19.50;99.90
3980;DHT22;2004;52.452;13.120;2023-08-17T05:33:49;19.60;99.90
3980;DHT22;2004;52.452;13.120;2023-08-17T05:41:39;19.70;99.90
3980;DHT22;2004;52.452;13.120;2023-08-17T05:49:30;19.70;99.90
3980;DHT22;2004;52.452;13.120;2023-08-17T05:57:21;19.80;99.90
3980;DHT22;2004;52.452;13.120;2023-08-17T06:05:11;19.80;99.90
3980;DHT22;2004;52.452;13.120;2023-08-17T06:13:02;19.80;99.90
3980;DHT22;2004;52.452;13.120;2023-08-17T06:20:53;19.80;99.90
3980;DHT22;2004;52.452;13.120;2023-08-17T06:28:44;19.90;99.90
3980;DHT22;2004;52.452;13.120;2023-08-17T06:36:37;19.80;99.90
3980;DHT22;2004;52.452;13.120;2023-08-17T06:44:28;19.80;99.90
3980;DHT22;2004;52.452;13.120;2023-08-17T06:52:21;19.70;99.90
3980;DHT22;2004;52.452;13.120;2023-08-17T07:00:11;19.60;99.90
3980;DHT22;2004;52.452;13.120;2023-08-17T07:08:02;19.50;99.90
3980;DHT22;2004;52.452;13.120;2023-08-17T07:15:53;19.30;99.90
3980;DHT22;2004;52.452;13.120;2023-08-17T07:23:45;19.30;99.90
3980;DHT22;2004;52.452;13.120;2023-08-17T07:31:36;19.20;99.90
3980;DHT22;2004;52.452;13.120;2023-08-17T07:39:28;19.10;99.90
3980;DHT22;2004;52.452;13.120;2023-08-17T07:47:18;19.00;99.90
3980;DHT22;2004;52.452;13.120;2023-08-17T07:55:09;19.00;99.90
3980;DHT22;2004;52.452;13.120;2023-08-17T08:02:59;19.00;99.90
3980;DHT22;2004;52.452;13.120;2023-08-17T08:10:52;19.00;99.90
3980;DHT22;2004;52.452;13.120;2023-08-17T08:18:43;19.00;99.90
3980;DHT22;2004;52.452;13.120;2023-08-17T08:26:33;19.10;99.90
3980;DHT22;2004;52.452;13.120;2023-08-17T08:34:24;19.10;99.90
3980;DHT22;2004;52.452;13.120;2023-08-17T08:42:14;19.20;99.90
3980;DHT22;2004;52.452;13.120;2023-08-17T08:50:05;19.30;99.90
3980;DHT22;2004;52.452;13.120;2023-08-17T08:57:56;19.40;99.90
3980;DHT22;2004;52.452;13.120;2023-08-17T09:05:48;19.60;99.90
3980;DHT22;2004;52.452;13.120;2023-08-17T09:13:39;19.80;99.90
3980;DHT22;2004;52.452;13.120;2023-08-17T09:21:32;20.00;99.90
3980;DHT22;2004;52.452;13.120;2023-08-17T09:29:23;20.20;99.90
3980;DHT22;2004;52.452;13.120;2023-08-17T09:37:14;20.30;99.90
3980;DHT22;2004;52.452;13.120;2023-08-17T09:45:05;20.30;99.90
3980;DHT22;2004;52.452;13.120;2023-08-17T09:52:56;20.50;99.90
3980;DHT22;2004;52.452;13.120;2023-08-17T10:00:49;20.60;99.90
3980;DHT22;2004;52.452;13.120;2023-08-17T10:08:42;20.80;99.90
3980;DHT22;2004;52.452;13.120;2023-08-17T10:16:38;21.00;99.90
3980;DHT22;2004;52.452;13.120;2023-08-17T10:24:32;21.20;99.90
3980;DHT22;2004;52.452;13.120;2023-08-17T10:32:26;21.40;99.90
3980;DHT22;2004;52.452;13.120;2023-08-17T10:40:25;21.70;99.90
3980;DHT22;2004;52.452;13.120;2023-08-17T10:56:10;22.20;99.90
3980;DHT22;2004;52.452;13.120;2023-08-17T11:04:11;22.40;99.90
3980;DHT22;2004;52.452;13.120;2023-08-17T11:12:02;22.50;99.90
3980;DHT22;2004;52.452;13.120;2023-08-17T11:19:53;22.70;99.90
3980;DHT22;2004;52.452;13.120;2023-08-17T11:27:43;23.00;99.90
3980;DHT22;2004;52.452;13.120;2023-08-17T11:35:34;23.00;99.90
3980;DHT22;2004;52.452;13.120;2023-08-17T11:43:27;23.30;99.90
3980;DHT22;2004;52.452;13.120;2023-08-17T11:51:29;23.70;99.90
3980;DHT22;2004;52.452;13.120;2023-08-17T11:59:20;23.90;99.90
3980;DHT22;2004;52.452;13.120;2023-08-17T12:07:11;23.80;99.90
3980;DHT22;2004;52.452;13.120;2023-08-17T12:15:03;23.80;99.90
3980;DHT22;2004;52.452;13.120;2023-08-17T12:22:54;23.70;99.90
3980;DHT22;2004;52.452;13.120;2023-08-17T12:30:44;23.80;99.90
3980;DHT22;2004;52.452;13.120;2023-08-17T12:38:35;24.20;99.90
3980;DHT22;2004;52.452;13.120;2023-08-17T12:46:25;24.10;99.90
3980;DHT22;2004;52.452;13.120;2023-08-17T12:54:16;24.30;99.90
3980;DHT22;2004;52.452;13.120;2023-08-17T13:02:06;24.50;99.90
3980;DHT22;2004;52.452;13.120;2023-08-17T13:09:57;24.80;99.90
3980;DHT22;2004;52.452;13.120;2023-08-17T13:17:48;24.70;99.90
3980;DHT22;2004;52.452;13.120;2023-08-17T13:25:38;24.80;99.90
3980;DHT22;2004;52.452;13.120;2023-08-17T13:33:29;24.90;99.90
3980;DHT22;2004;52.452;13.120;2023-08-17T13:41:19;24.90;99.90
3980;DHT22;2004;52.452;13.120;2023-08-17T13:49:10;25.10;99.90
3980;DHT22;2004;52.452;13.120;2023-08-17T13:57:00;25.30;99.90
3980;DHT22;2004;52.452;13.120;2023-08-17T14:04:51;25.50;99.90
3980;DHT22;2004;52.452;13.120;2023-08-17T14:12:41;25.30;99.90
3980;DHT22;2004;52.452;13.120;2023-08-17T14:20:32;25.50;99.90
3980;DHT22;2004;52.452;13.120;2023-08-17T14:28:22;25.60;99.90
3980;DHT22;2004;52.452;13.120;2023-08-17T14:36:14;25.60;99.90
3980;DHT22;2004;52.452;13.120;2023-08-17T14:44:04;25.60;99.90
3980;DHT22;2004;52.452;13.120;2023-08-17T14:51:55;25.60;99.90
3980;DHT22;2004;52.452;13.120;2023-08-17T14:59:46;25.60;99.90
3980;DHT22;2004;52.452;13.120;2023-08-17T15:07:36;25.60;99.90
3980;DHT22;2004;52.452;13.120;2023-08-17T15:15:27;25.70;99.90
3980;DHT22;2004;52.452;13.120;2023-08-17T15:23:18;25.70;99.90
3980;DHT22;2004;52.452;13.120;2023-08-17T15:31:08;25.60;99.90
3980;DHT22;2004;52.452;13.120;2023-08-17T15:39:06;25.70;99.90
3980;DHT22;2004;52.452;13.120;2023-08-17T15:46:58;25.80;99.90
3980;DHT22;2004;52.452;13.120;2023-08-17T15:54:48;25.70;99.90
3980;DHT22;2004;52.452;13.120;2023-08-17T16:02:39;25.60;99.90
3980;DHT22;2004;52.452;13.120;2023-08-17T16:10:29;25.60;99.90
3980;DHT22;2004;52.452;13.120;2023-08-17T16:18:21;25.60;99.90
3980;DHT22;2004;52.452;13.120;2023-08-17T16:26:11;25.50;99.90
3980;DHT22;2004;52.452;13.120;2023-08-17T16:34:02;25.40;99.90
3980;DHT22;2004;52.452;13.120;2023-08-17T16:41:53;25.40;99.90
3980;DHT22;2004;52.452;13.120;2023-08-17T16:49:43;25.30;99.90
3980;DHT22;2004;52.452;13.120;2023-08-17T16:57:34;25.20;99.90
3980;DHT22;2004;52.452;13.120;2023-08-17T17:05:25;25.20;99.90
3980;DHT22;2004;52.452;13.120;2023-08-17T17:13:15;25.10;99.90
3980;DHT22;2004;52.452;13.120;2023-08-17T17:21:06;25.10;99.90
3980;DHT22;2004;52.452;13.120;2023-08-17T17:28:57;25.00;99.90
3980;DHT22;2004;52.452;13.120;2023-08-17T17:36:47;25.00;99.90
3980;DHT22;2004;52.452;13.120;2023-08-17T17:44:39;24.90;99.90
3980;DHT22;2004;52.452;13.120;2023-08-17T17:52:30;24.80;99.90
3980;DHT22;2004;52.452;13.120;2023-08-17T18:00:20;24.80;99.90
3980;DHT22;2004;52.452;13.120;2023-08-17T18:08:11;24.70;99.90
3980;DHT22;2004;52.452;13.120;2023-08-17T18:16:02;24.60;99.90
3980;DHT22;2004;52.452;13.120;2023-08-17T18:23:52;24.60;99.90
3980;DHT22;2004;52.452;13.120;2023-08-17T18:31:44;24.60;99.90
3980;DHT22;2004;52.452;13.120;2023-08-17T18:39:35;24.50;99.90
3980;DHT22;2004;52.452;13.120;2023-08-17T18:47:25;24.50;99.90
3980;DHT22;2004;52.452;13.120;2023-08-17T18:55:16;24.40;99.90
3980;DHT22;2004;52.452;13.120;2023-08-17T19:03:06;24.30;99.90
3980;DHT22;2004;52.452;13.120;2023-08-17T19:10:57;24.20;99.90
3980;DHT22;2004;52.452;13.120;2023-08-17T19:18:47;24.10;99.90
3980;DHT22;2004;52.452;13.120;2023-08-17T19:26:38;24.00;99.90
3980;DHT22;2004;52.452;13.120;2023-08-17T19:34:28;23.90;99.90
3980;DHT22;2004;52.452;13.120;2023-08-17T19:42:19;23.70;99.90
3980;DHT22;2004;52.452;13.120;2023-08-17T19:50:10;23.60;99.90
3980;DHT22;2004;52.452;13.120;2023-08-17T19:58:00;23.40;99.90
3980;DHT22;2004;52.452;13.120;2023-08-17T20:05:55;23.30;99.90
3980;DHT22;2004;52.452;13.120;2023-08-17T20:13:46;23.20;99.90
3980;DHT22;2004;52.452;13.120;2023-08-17T20:21:36;23.00;99.90
3980;DHT22;2004;52.452;13.120;2023-08-17T20:29:28;22.90;99.90
3980;DHT22;2004;52.452;13.120;2023-08-17T20:37:19;22.80;99.90
3980;DHT22;2004;52.452;13.120;2023-08-17T20:45:09;22.60;99.90
3980;DHT22;2004;52.452;13.120;2023-08-17T20:53:00;22.60;99.90
3980;DHT22;2004;52.452;13.120;2023-08-17T21:00:50;22.40;99.90
3980;DHT22;2004;52.452;13.120;2023-08-17T21:08:41;22.30;99.90
3980;DHT22;2004;52.452;13.120;2023-08-17T21:16:33;22.30;99.90
3980;DHT22;2004;52.452;13.120;2023-08-17T21:24:23;22.20;99.90
3980;DHT22;2004;52.452;13.120;2023-08-17T21:32:14;22.20;99.90
3980;DHT22;2004;52.452;13.120;2023-08-17T21:40:05;22.30;99.90
3980;DHT22;2004;52.452;13.120;2023-08-17T21:47:55;22.20;99.90
3980;DHT22;2004;52.452;13.120;2023-08-17T21:55:50;22.10;99.90
3980;DHT22;2004;52.452;13.120;2023-08-17T22:03:41;21.80;99.90
3980;DHT22;2004;52.452;13.120;2023-08-17T22:11:32;21.60;99.90
3980;DHT22;2004;52.452;13.120;2023-08-17T22:19:23;21.60;99.90
3980;DHT22;2004;52.452;13.120;2023-08-17T22:27:13;21.60;99.90
3980;DHT22;2004;52.452;13.120;2023-08-17T22:35:04;21.50;99.90
3980;DHT22;2004;52.452;13.120;2023-08-17T22:42:56;21.50;99.90
3980;DHT22;2004;52.452;13.120;2023-08-17T22:50:46;21.40;99.90
3980;DHT22;2004;52.452;13.120;2023-08-17T22:58:38;21.30;99.90
3980;DHT22;2004;52.452;13.120;2023-08-17T23:06:28;21.30;99.90
3980;DHT22;2004;52.452;13.120;2023-08-17T23:14:19;21.10;99.90
3980;DHT22;2004;52.452;13.120;2023-08-17T23:22:10;21.00;99.90
3980;DHT22;2004;52.452;13.120;2023-08-17T23:30:00;21.00;99.90
3980;DHT22;2004;52.452;13.120;2023-08-17T23:37:51;21.00;99.90
3980;DHT22;2004;52.452;13.120;2023-08-17T23:45:41;20.90;99.90
3980;DHT22;2004;52.452;13.120;2023-08-17T23:53:32;20.80;99.90
